createdAt,value
2017-04-10T00:00:54.857Z,0
2017-04-10T00:01:54.887Z,0
2017-04-10T00:02:54.906Z,0
2017-04-10T00:03:54.922Z,0
2017-04-10T00:04:54.632Z,0
2017-04-10T00:05:54.967Z,0
2017-04-10T00:06:54.985Z,0
2017-04-10T00:07:55.003Z,0
2017-04-10T00:08:55.028Z,0
2017-04-10T00:09:55.049Z,0
2017-04-10T00:10:55.062Z,0
2017-04-10T00:11:55.084Z,0
2017-04-10T00:12:55.099Z,0
2017-04-10T00:13:55.118Z,0
2017-04-10T00:14:55.133Z,0
2017-04-10T00:15:55.156Z,0
2017-04-10T00:16:55.182Z,0
2017-04-10T00:17:55.204Z,0
2017-04-10T00:18:54.898Z,0
2017-04-10T00:19:54.927Z,0
2017-04-10T00:20:55.254Z,0
2017-04-10T00:21:55.278Z,0
2017-04-10T00:22:55.294Z,0
2017-04-10T00:23:55.323Z,0
2017-04-10T00:24:55.333Z,0
2017-04-10T00:25:55.347Z,0
2017-04-10T00:26:55.062Z,0
2017-04-10T00:27:55.397Z,0
2017-04-10T00:28:55.414Z,0
2017-04-10T00:29:55.432Z,0
2017-04-10T00:30:55.451Z,0
2017-04-10T00:31:55.471Z,0
2017-04-10T00:32:55.497Z,0
2017-04-10T00:33:55.514Z,0
2017-04-10T00:34:55.534Z,0
2017-04-10T00:35:55.551Z,0
2017-04-10T00:36:55.564Z,0
2017-04-10T00:37:55.593Z,0
2017-04-10T00:38:55.611Z,0
2017-04-10T00:39:55.627Z,0
2017-04-10T00:40:55.648Z,0
2017-04-10T00:41:55.661Z,0
2017-04-10T00:42:55.706Z,0
2017-04-10T00:43:55.701Z,0
2017-04-10T00:44:55.719Z,0
2017-04-10T00:45:55.738Z,0
2017-04-10T00:46:55.758Z,0
2017-04-10T00:47:55.791Z,0
2017-04-10T00:48:55.482Z,0
2017-04-10T00:49:55.815Z,0
2017-04-10T00:50:55.519Z,0
2017-04-10T00:51:55.547Z,0
2017-04-10T00:52:55.876Z,0
2017-04-10T00:53:55.898Z,0
2017-04-10T00:54:55.914Z,0
2017-04-10T00:55:55.936Z,0
2017-04-10T00:56:55.947Z,0
2017-04-10T00:57:55.977Z,0
2017-04-10T00:58:56.001Z,0
2017-04-10T00:59:56.004Z,0
2017-04-10T01:00:56.018Z,0
2017-04-10T01:01:56.042Z,0
2017-04-10T01:02:56.079Z,0
2017-04-10T01:03:56.095Z,0
2017-04-10T01:04:56.114Z,0
2017-04-10T01:05:56.124Z,0
2017-04-10T01:06:56.227Z,0
2017-04-10T01:07:56.235Z,0
2017-04-10T01:08:56.243Z,0
2017-04-10T01:09:56.252Z,0
2017-04-10T01:10:56.252Z,0
2017-04-10T01:11:56.258Z,0
2017-04-10T01:12:56.277Z,0
2017-04-10T01:13:56.278Z,0
2017-04-10T01:14:56.410Z,0
2017-04-10T01:15:56.423Z,0
2017-04-10T01:16:56.430Z,0
2017-04-10T01:17:56.464Z,0
2017-04-10T01:18:56.372Z,0
2017-04-10T01:19:56.487Z,0
2017-04-10T01:20:56.497Z,0
2017-04-10T01:21:56.529Z,0
2017-04-10T01:22:56.237Z,0
2017-04-10T01:23:56.246Z,0
2017-04-10T01:24:56.544Z,0
2017-04-10T01:25:56.553Z,0
2017-04-10T01:26:56.563Z,0
2017-04-10T01:27:56.573Z,0
2017-04-10T01:28:56.579Z,0
2017-04-10T01:29:56.574Z,0
2017-04-10T01:30:56.589Z,0
2017-04-10T01:31:56.609Z,0
2017-04-10T01:32:56.632Z,0
2017-04-10T01:33:56.654Z,0
2017-04-10T01:34:56.670Z,0
2017-04-10T01:35:56.689Z,0
2017-04-10T01:36:56.712Z,0
2017-04-10T01:37:56.728Z,0
2017-04-10T01:38:56.746Z,0
2017-04-10T01:39:56.761Z,0
2017-04-10T01:40:56.784Z,0
2017-04-10T01:41:56.793Z,0
2017-04-10T01:42:56.820Z,0
2017-04-10T01:43:56.841Z,0
2017-04-10T01:44:56.893Z,0
2017-04-10T01:45:56.869Z,0
2017-04-10T01:46:56.901Z,0
2017-04-10T01:47:56.908Z,0
2017-04-10T01:48:56.926Z,0
2017-04-10T01:49:56.952Z,0
2017-04-10T01:50:56.973Z,0
2017-04-10T01:51:56.991Z,0
2017-04-10T01:52:57.008Z,0
2017-04-10T01:53:57.014Z,0
2017-04-10T01:54:57.038Z,0
2017-04-10T01:55:56.742Z,0
2017-04-10T01:56:57.075Z,0
2017-04-10T01:57:56.783Z,0
2017-04-10T01:58:56.798Z,0
2017-04-10T01:59:57.125Z,0
2017-04-10T02:00:57.157Z,0
2017-04-10T02:01:57.166Z,0
2017-04-10T02:02:57.183Z,0
2017-04-10T02:03:57.219Z,0
2017-04-10T02:04:57.226Z,0
2017-04-10T02:05:57.244Z,0
2017-04-10T02:06:57.257Z,0
2017-04-10T02:07:57.313Z,0
2017-04-10T02:08:57.290Z,0
2017-04-10T02:09:57.316Z,0
2017-04-10T02:10:57.339Z,0
2017-04-10T02:11:57.354Z,0
2017-04-10T02:12:57.368Z,0
2017-04-10T02:13:57.397Z,0
2017-04-10T02:14:57.410Z,0
2017-04-10T02:15:57.428Z,0
2017-04-10T02:16:57.477Z,0
2017-04-10T02:17:57.463Z,0
2017-04-10T02:18:57.486Z,0
2017-04-10T02:19:57.186Z,0
2017-04-10T02:20:57.517Z,0
2017-04-10T02:21:57.534Z,0
2017-04-10T02:22:57.569Z,0
2017-04-10T02:23:57.574Z,0
2017-04-10T02:24:57.585Z,0
2017-04-10T02:25:57.615Z,0
2017-04-10T02:26:57.627Z,0
2017-04-10T02:27:57.655Z,0
2017-04-10T02:28:57.661Z,0
2017-04-10T02:29:57.687Z,0
2017-04-10T02:30:57.703Z,0
2017-04-10T02:31:57.717Z,0
2017-04-10T02:32:57.741Z,0
2017-04-10T02:33:57.762Z,0
2017-04-10T02:34:57.775Z,0
2017-04-10T02:35:57.796Z,0
2017-04-10T02:36:57.806Z,0
2017-04-10T02:37:57.824Z,0
2017-04-10T02:38:57.838Z,0
2017-04-10T02:39:57.863Z,0
2017-04-10T02:40:57.882Z,0
2017-04-10T02:41:57.900Z,0
2017-04-10T02:42:57.918Z,0
2017-04-10T02:43:57.991Z,0
2017-04-10T02:44:57.950Z,0
2017-04-10T02:45:57.976Z,0
2017-04-10T02:46:57.991Z,0
2017-04-10T02:47:58.007Z,0
2017-04-10T02:48:58.035Z,0
2017-04-10T02:49:58.043Z,0
2017-04-10T02:50:58.063Z,0
2017-04-10T02:51:58.195Z,0
2017-04-10T02:52:58.204Z,0
2017-04-10T02:53:58.212Z,0
2017-04-10T02:54:58.246Z,0
2017-04-10T02:55:58.246Z,0
2017-04-10T02:56:58.253Z,0
2017-04-10T02:57:58.261Z,0
2017-04-10T02:58:58.269Z,0
2017-04-10T02:59:58.279Z,0
2017-04-10T03:00:58.335Z,0
2017-04-10T03:01:58.348Z,0
2017-04-10T03:02:58.353Z,0
2017-04-10T03:03:58.366Z,0
2017-04-10T03:04:58.364Z,0
2017-04-10T03:05:58.334Z,0
2017-04-10T03:06:58.039Z,0
2017-04-10T03:07:58.470Z,0
2017-04-10T03:08:58.479Z,0
2017-04-10T03:09:58.183Z,0
2017-04-10T03:10:58.518Z,0
2017-04-10T03:11:58.549Z,0
2017-04-10T03:12:58.621Z,0
2017-04-10T03:13:58.630Z,0
2017-04-10T03:14:58.638Z,0
2017-04-10T03:15:58.652Z,0
2017-04-10T03:16:58.650Z,0
2017-04-10T03:17:58.656Z,0
2017-04-10T03:18:58.669Z,0
2017-04-10T03:19:58.672Z,0
2017-04-10T03:20:58.813Z,0
2017-04-10T03:21:58.812Z,0
2017-04-10T03:22:58.822Z,0
2017-04-10T03:23:58.838Z,0
2017-04-10T03:24:58.823Z,0
2017-04-10T03:25:58.783Z,0
2017-04-10T03:26:58.790Z,0
2017-04-10T03:27:58.804Z,0
2017-04-10T03:28:58.808Z,0
2017-04-10T03:29:58.839Z,0
2017-04-10T03:30:58.840Z,0
2017-04-10T03:31:58.848Z,0
2017-04-10T03:32:58.859Z,0
2017-04-10T03:33:58.861Z,0
2017-04-10T03:34:58.923Z,0
2017-04-10T03:35:58.871Z,0
2017-04-10T03:36:58.884Z,0
2017-04-10T03:37:58.899Z,0
2017-04-10T03:38:58.915Z,0
2017-04-10T03:39:58.742Z,0
2017-04-10T03:40:58.953Z,0
2017-04-10T03:41:58.970Z,0
2017-04-10T03:42:58.765Z,0
2017-04-10T03:43:58.997Z,0
2017-04-10T03:44:59.021Z,0
2017-04-10T03:45:59.034Z,0
2017-04-10T03:46:59.061Z,0
2017-04-10T03:47:59.069Z,0
2017-04-10T03:48:59.093Z,0
2017-04-10T03:49:59.113Z,0
2017-04-10T03:50:59.120Z,0
2017-04-10T03:51:58.838Z,0
2017-04-10T03:52:59.340Z,0
2017-04-10T03:53:59.173Z,0
2017-04-10T03:54:59.236Z,0
2017-04-10T03:55:58.897Z,0
2017-04-10T03:56:59.234Z,0
2017-04-10T03:57:59.246Z,0
2017-04-10T03:58:59.269Z,0
2017-04-10T03:59:59.294Z,0
2017-04-10T04:00:59.351Z,0
2017-04-10T04:01:59.313Z,0
2017-04-10T04:02:59.330Z,0
2017-04-10T04:03:59.040Z,0
2017-04-10T04:04:59.367Z,4
2017-04-10T04:05:59.389Z,4
2017-04-10T04:06:59.408Z,0
2017-04-10T04:07:59.422Z,0
2017-04-10T04:08:59.439Z,4
2017-04-10T04:09:59.458Z,4
2017-04-10T04:10:59.216Z,4
2017-04-10T04:11:59.327Z,4
2017-04-10T04:12:59.511Z,8
2017-04-10T04:13:59.527Z,4
2017-04-10T04:14:59.567Z,8
2017-04-10T04:15:59.654Z,8
2017-04-10T04:16:59.586Z,8
2017-04-10T04:17:59.603Z,12
2017-04-10T04:18:59.609Z,12
2017-04-10T04:19:59.628Z,12
2017-04-10T04:20:59.811Z,16
2017-04-10T04:21:59.794Z,16
2017-04-10T04:22:59.686Z,20
2017-04-10T04:23:59.703Z,20
2017-04-10T04:24:59.726Z,20
2017-04-10T04:25:59.740Z,24
2017-04-10T04:26:59.778Z,28
2017-04-10T04:27:59.773Z,32
2017-04-10T04:28:59.791Z,36
2017-04-10T04:29:59.503Z,36
2017-04-10T04:30:59.820Z,36
2017-04-10T04:31:59.850Z,40
2017-04-10T04:32:59.864Z,44
2017-04-10T04:33:59.873Z,48
2017-04-10T04:34:59.906Z,52
2017-04-10T04:35:59.919Z,56
2017-04-10T04:36:59.928Z,60
2017-04-10T04:37:59.943Z,60
2017-04-10T04:38:59.954Z,64
2017-04-10T04:39:59.972Z,68
2017-04-10T04:40:59.988Z,72
2017-04-10T04:42:00.014Z,76
2017-04-10T04:43:00.063Z,84
2017-04-10T04:44:00.183Z,84
2017-04-10T04:45:00.062Z,88
2017-04-10T04:46:00.086Z,92
2017-04-10T04:47:00.215Z,96
2017-04-10T04:48:00.118Z,100
2017-04-10T04:49:00.132Z,104
2017-04-10T04:50:00.156Z,108
2017-04-10T04:51:00.165Z,108
2017-04-10T04:52:00.233Z,116
2017-04-10T04:53:00.333Z,120
2017-04-10T04:54:00.346Z,124
2017-04-10T04:55:00.268Z,128
2017-04-10T04:56:00.256Z,132
2017-04-10T04:57:00.391Z,136
2017-04-10T04:58:00.291Z,140
2017-04-10T04:59:00.403Z,144
2017-04-10T05:00:00.329Z,144
2017-04-10T05:01:00.335Z,148
2017-04-10T05:02:00.366Z,152
2017-04-10T05:03:00.379Z,156
2017-04-10T05:04:00.387Z,160
2017-04-10T05:05:00.420Z,160
2017-04-10T05:06:00.432Z,164
2017-04-10T05:07:00.450Z,168
2017-04-10T05:08:00.469Z,172
2017-04-10T05:09:00.476Z,172
2017-04-10T05:10:00.493Z,176
2017-04-10T05:11:00.517Z,180
2017-04-10T05:12:00.658Z,180
2017-04-10T05:13:00.238Z,184
2017-04-10T05:14:00.771Z,188
2017-04-10T05:15:00.581Z,188
2017-04-10T05:16:00.609Z,196
2017-04-10T05:17:00.620Z,196
2017-04-10T05:18:00.326Z,196
2017-04-10T05:19:00.659Z,204
2017-04-10T05:20:00.362Z,204
2017-04-10T05:21:00.733Z,208
2017-04-10T05:22:00.703Z,208
2017-04-10T05:23:00.735Z,212
2017-04-10T05:24:00.739Z,216
2017-04-10T05:25:00.754Z,212
2017-04-10T05:26:00.778Z,216
2017-04-10T05:27:00.790Z,220
2017-04-10T05:28:00.813Z,220
2017-04-10T05:29:00.817Z,224
2017-04-10T05:30:00.854Z,224
2017-04-10T05:31:00.546Z,228
2017-04-10T05:32:00.879Z,228
2017-04-10T05:33:00.884Z,232
2017-04-10T05:34:00.906Z,232
2017-04-10T05:35:00.930Z,236
2017-04-10T05:36:00.945Z,236
2017-04-10T05:37:00.967Z,240
2017-04-10T05:38:00.982Z,240
2017-04-10T05:39:00.997Z,244
2017-04-10T05:40:01.020Z,244
2017-04-10T05:41:01.032Z,244
2017-04-10T05:42:01.047Z,248
2017-04-10T05:43:01.073Z,248
2017-04-10T05:44:01.084Z,248
2017-04-10T05:45:01.097Z,252
2017-04-10T05:46:01.122Z,252
2017-04-10T05:47:01.139Z,256
2017-04-10T05:48:01.158Z,256
2017-04-10T05:49:01.180Z,260
2017-04-10T05:50:01.188Z,264
2017-04-10T05:51:01.200Z,268
2017-04-10T05:52:01.236Z,268
2017-04-10T05:53:00.933Z,272
2017-04-10T05:54:01.356Z,272
2017-04-10T05:55:01.275Z,272
2017-04-10T05:56:01.301Z,276
2017-04-10T05:57:01.001Z,276
2017-04-10T05:58:01.332Z,280
2017-04-10T05:59:01.341Z,280
2017-04-10T06:00:01.365Z,284
2017-04-10T06:01:01.377Z,284
2017-04-10T06:02:01.393Z,284
2017-04-10T06:03:01.410Z,284
2017-04-10T06:04:01.437Z,288
2017-04-10T06:05:01.446Z,292
2017-04-10T06:06:01.462Z,288
2017-04-10T06:07:01.487Z,288
2017-04-10T06:08:01.503Z,288
2017-04-10T06:09:01.513Z,292
2017-04-10T06:10:01.534Z,292
2017-04-10T06:11:01.561Z,296
2017-04-10T06:12:01.694Z,300
2017-04-10T06:13:01.594Z,296
2017-04-10T06:14:01.608Z,300
2017-04-10T06:15:01.616Z,300
2017-04-10T06:16:01.732Z,296
2017-04-10T06:17:01.341Z,300
2017-04-10T06:18:01.362Z,300
2017-04-10T06:19:01.692Z,304
2017-04-10T06:20:01.716Z,300
2017-04-10T06:21:01.718Z,304
2017-04-10T06:22:01.428Z,304
2017-04-10T06:23:01.450Z,308
2017-04-10T06:24:01.771Z,308
2017-04-10T06:25:01.795Z,312
2017-04-10T06:26:01.514Z,312
2017-04-10T06:27:01.834Z,312
2017-04-10T06:28:01.846Z,312
2017-04-10T06:29:01.863Z,312
2017-04-10T06:30:01.880Z,316
2017-04-10T06:31:01.900Z,312
2017-04-10T06:32:01.979Z,316
2017-04-10T06:33:01.955Z,316
2017-04-10T06:34:01.999Z,320
2017-04-10T06:35:01.958Z,320
2017-04-10T06:36:01.986Z,320
2017-04-10T06:37:02.000Z,320
2017-04-10T06:38:02.017Z,320
2017-04-10T06:39:02.034Z,320
2017-04-10T06:40:02.155Z,320
2017-04-10T06:41:02.082Z,320
2017-04-10T06:42:02.086Z,320
2017-04-10T06:43:02.103Z,320
2017-04-10T06:44:02.117Z,320
2017-04-10T06:45:02.142Z,320
2017-04-10T06:46:02.164Z,316
2017-04-10T06:47:01.562Z,320
2017-04-10T06:48:02.193Z,324
2017-04-10T06:49:02.215Z,324
2017-04-10T06:50:02.230Z,324
2017-04-10T06:51:02.248Z,324
2017-04-10T06:52:02.273Z,324
2017-04-10T06:53:02.285Z,328
2017-04-10T06:54:02.297Z,332
2017-04-10T06:55:02.327Z,332
2017-04-10T06:56:02.383Z,336
2017-04-10T06:57:02.353Z,340
2017-04-10T06:58:02.369Z,340
2017-04-10T06:59:02.391Z,340
2017-04-10T07:00:02.400Z,344
2017-04-10T07:01:02.425Z,344
2017-04-10T07:02:02.126Z,344
2017-04-10T07:03:02.189Z,348
2017-04-10T07:04:02.476Z,348
2017-04-10T07:05:02.496Z,352
2017-04-10T07:06:02.522Z,352
2017-04-10T07:07:02.539Z,356
2017-04-10T07:08:02.561Z,360
2017-04-10T07:09:02.570Z,360
2017-04-10T07:10:02.588Z,360
2017-04-10T07:11:02.613Z,364
2017-04-10T07:12:02.725Z,364
2017-04-10T07:13:02.641Z,368
2017-04-10T07:14:02.679Z,368
2017-04-10T07:15:02.678Z,368
2017-04-10T07:16:02.703Z,368
2017-04-10T07:17:02.714Z,372
2017-04-10T07:18:02.758Z,372
2017-04-10T07:19:02.567Z,372
2017-04-10T07:20:02.910Z,376
2017-04-10T07:21:02.794Z,372
2017-04-10T07:22:02.828Z,376
2017-04-10T07:23:02.822Z,380
2017-04-10T07:24:02.853Z,384
2017-04-10T07:25:02.547Z,380
2017-04-10T07:26:02.884Z,380
2017-04-10T07:27:02.897Z,384
2017-04-10T07:28:02.931Z,384
2017-04-10T07:29:02.929Z,384
2017-04-10T07:30:02.968Z,384
2017-04-10T07:31:02.973Z,384
2017-04-10T07:32:02.990Z,384
2017-04-10T07:33:02.696Z,388
2017-04-10T07:34:02.718Z,388
2017-04-10T07:35:03.068Z,384
2017-04-10T07:36:03.070Z,388
2017-04-10T07:37:03.085Z,392
2017-04-10T07:38:02.842Z,388
2017-04-10T07:39:03.139Z,396
2017-04-10T07:40:03.135Z,392
2017-04-10T07:41:03.152Z,396
2017-04-10T07:42:03.196Z,396
2017-04-10T07:43:03.190Z,396
2017-04-10T07:44:03.213Z,400
2017-04-10T07:45:03.231Z,404
2017-04-10T07:46:02.937Z,400
2017-04-10T07:47:03.258Z,400
2017-04-10T07:48:02.975Z,396
2017-04-10T07:49:02.992Z,400
2017-04-10T07:50:03.314Z,404
2017-04-10T07:51:03.032Z,404
2017-04-10T07:52:03.046Z,408
2017-04-10T07:53:03.067Z,404
2017-04-10T07:54:03.394Z,404
2017-04-10T07:55:03.417Z,404
2017-04-10T07:56:03.128Z,408
2017-04-10T07:57:03.145Z,408
2017-04-10T07:58:03.166Z,412
2017-04-10T07:59:03.175Z,412
2017-04-10T08:00:03.554Z,416
2017-04-10T08:01:03.523Z,416
2017-04-10T08:02:03.544Z,420
2017-04-10T08:03:03.566Z,416
2017-04-10T08:04:03.608Z,420
2017-04-10T08:05:03.604Z,424
2017-04-10T08:06:03.644Z,432
2017-04-10T08:07:03.647Z,436
2017-04-10T08:08:03.727Z,444
2017-04-10T08:09:03.735Z,448
2017-04-10T08:10:03.821Z,456
2017-04-10T08:11:03.743Z,464
2017-04-10T08:12:03.751Z,468
2017-04-10T08:13:03.761Z,464
2017-04-10T08:14:03.783Z,460
2017-04-10T08:15:03.907Z,460
2017-04-10T08:16:03.820Z,464
2017-04-10T08:17:03.835Z,468
2017-04-10T08:18:03.861Z,468
2017-04-10T08:19:03.872Z,476
2017-04-10T08:20:03.908Z,484
2017-04-10T08:21:03.921Z,492
2017-04-10T08:22:03.620Z,496
2017-04-10T08:23:03.951Z,504
2017-04-10T08:24:03.972Z,512
2017-04-10T08:25:04.220Z,512
2017-04-10T08:26:04.235Z,508
2017-04-10T08:27:04.238Z,508
2017-04-10T08:28:04.146Z,516
2017-04-10T08:29:04.181Z,520
2017-04-10T08:30:04.299Z,524
2017-04-10T08:31:04.293Z,524
2017-04-10T08:32:04.312Z,524
2017-04-10T08:33:04.298Z,524
2017-04-10T08:34:04.367Z,528
2017-04-10T08:35:04.191Z,532
2017-04-10T08:36:04.208Z,532
2017-04-10T08:37:03.922Z,536
2017-04-10T08:38:04.245Z,540
2017-04-10T08:39:04.273Z,548
2017-04-10T08:40:04.291Z,548
2017-04-10T08:41:04.309Z,548
2017-04-10T08:42:04.341Z,552
2017-04-10T08:43:04.356Z,552
2017-04-10T08:44:04.055Z,548
2017-04-10T08:45:04.075Z,548
2017-04-10T08:46:04.408Z,548
2017-04-10T08:47:04.433Z,544
2017-04-10T08:48:04.449Z,548
2017-04-10T08:49:04.471Z,552
2017-04-10T08:50:04.499Z,552
2017-04-10T08:51:04.506Z,560
2017-04-10T08:52:04.529Z,564
2017-04-10T08:53:04.566Z,568
2017-04-10T08:54:04.253Z,564
2017-04-10T08:55:04.596Z,564
2017-04-10T08:56:04.611Z,568
2017-04-10T08:57:04.315Z,572
2017-04-10T08:58:04.647Z,576
2017-04-10T08:59:04.782Z,584
2017-04-10T09:00:04.376Z,588
2017-04-10T09:01:04.395Z,592
2017-04-10T09:02:04.834Z,604
2017-04-10T09:03:04.832Z,608
2017-04-10T09:04:04.456Z,616
2017-04-10T09:05:04.886Z,612
2017-04-10T09:06:04.505Z,616
2017-04-10T09:07:04.522Z,624
2017-04-10T09:08:04.541Z,628
2017-04-10T09:09:04.570Z,636
2017-04-10T09:10:04.583Z,636
2017-04-10T09:11:04.714Z,644
2017-04-10T09:12:04.714Z,648
2017-04-10T09:13:04.743Z,660
2017-04-10T09:14:05.069Z,668
2017-04-10T09:15:04.771Z,676
2017-04-10T09:16:05.108Z,684
2017-04-10T09:17:04.867Z,692
2017-04-10T09:18:05.186Z,692
2017-04-10T09:19:04.886Z,696
2017-04-10T09:20:04.897Z,704
2017-04-10T09:21:04.922Z,704
2017-04-10T09:22:05.038Z,704
2017-04-10T09:23:05.356Z,712
2017-04-10T09:24:05.061Z,712
2017-04-10T09:25:05.381Z,716
2017-04-10T09:26:05.067Z,724
2017-04-10T09:27:05.390Z,732
2017-04-10T09:28:05.086Z,744
2017-04-10T09:29:05.057Z,748
2017-04-10T09:30:05.164Z,740
2017-04-10T09:31:05.380Z,752
2017-04-10T09:32:05.380Z,768
2017-04-10T09:33:05.078Z,768
2017-04-10T09:34:05.407Z,780
2017-04-10T09:35:05.416Z,784
2017-04-10T09:36:05.434Z,784
2017-04-10T09:37:05.458Z,792
2017-04-10T09:38:05.474Z,804
2017-04-10T09:39:05.373Z,804
2017-04-10T09:40:05.072Z,804
2017-04-10T09:41:05.538Z,816
2017-04-10T09:42:05.565Z,824
2017-04-10T09:43:05.360Z,828
2017-04-10T09:44:05.605Z,840
2017-04-10T09:45:05.317Z,840
2017-04-10T09:46:05.379Z,844
2017-04-10T09:47:05.381Z,848
2017-04-10T09:48:05.694Z,860
2017-04-10T09:49:05.404Z,868
2017-04-10T09:50:05.438Z,872
2017-04-10T09:51:05.757Z,880
2017-04-10T09:52:05.467Z,892
2017-04-10T09:53:05.799Z,920
2017-04-10T09:54:05.831Z,944
2017-04-10T09:55:05.842Z,964
2017-04-10T09:56:05.876Z,980
2017-04-10T09:57:05.885Z,992
2017-04-10T09:58:05.909Z,1012
2017-04-10T09:59:05.620Z,1020
2017-04-10T10:00:05.952Z,1024
2017-04-10T10:01:05.657Z,1028
2017-04-10T10:02:06.025Z,1020
2017-04-10T10:03:06.019Z,1028
2017-04-10T10:04:05.742Z,1040
2017-04-10T10:05:06.061Z,1044
2017-04-10T10:06:05.500Z,1072
2017-04-10T10:07:05.478Z,1076
2017-04-10T10:08:05.812Z,1088
2017-04-10T10:09:05.523Z,1096
2017-04-10T10:10:05.252Z,1096
2017-04-10T10:11:05.569Z,1096
2017-04-10T10:12:05.906Z,1116
2017-04-10T10:13:05.925Z,1148
2017-04-10T10:14:05.945Z,1164
2017-04-10T10:15:06.281Z,1164
2017-04-10T10:16:06.311Z,1160
2017-04-10T10:17:06.029Z,1160
2017-04-10T10:18:06.035Z,1176
2017-04-10T10:19:06.068Z,1188
2017-04-10T10:20:05.768Z,1216
2017-04-10T10:21:06.420Z,1224
2017-04-10T10:22:06.128Z,1232
2017-04-10T10:23:06.461Z,1272
2017-04-10T10:24:06.172Z,1296
2017-04-10T10:25:06.511Z,1272
2017-04-10T10:26:06.535Z,1280
2017-04-10T10:27:06.556Z,1276
2017-04-10T10:28:06.576Z,1304
2017-04-10T10:29:06.283Z,1284
2017-04-10T10:30:06.623Z,1320
2017-04-10T10:31:06.340Z,1348
2017-04-10T10:32:06.373Z,1356
2017-04-10T10:33:06.080Z,1372
2017-04-10T10:34:06.713Z,1348
2017-04-10T10:35:06.422Z,1360
2017-04-10T10:36:06.448Z,1388
2017-04-10T10:37:06.485Z,1372
2017-04-10T10:38:06.493Z,1388
2017-04-10T10:39:06.200Z,1404
2017-04-10T10:40:06.533Z,1412
2017-04-10T10:41:06.877Z,1432
2017-04-10T10:42:06.580Z,1444
2017-04-10T10:43:06.616Z,1448
2017-04-10T10:44:07.059Z,1460
2017-04-10T10:45:06.341Z,1464
2017-04-10T10:46:07.076Z,1500
2017-04-10T10:47:07.100Z,1520
2017-04-10T10:48:06.725Z,1564
2017-04-10T10:49:06.802Z,1620
2017-04-10T10:50:06.463Z,1640
2017-04-10T10:51:06.487Z,1696
2017-04-10T10:52:07.220Z,1716
2017-04-10T10:53:06.966Z,1732
2017-04-10T10:54:07.094Z,1792
2017-04-10T10:55:07.094Z,1856
2017-04-10T10:56:07.031Z,1924
2017-04-10T10:57:07.115Z,1944
2017-04-10T10:58:07.348Z,1960
2017-04-10T10:59:07.354Z,1976
2017-04-10T11:00:07.016Z,1996
2017-04-10T11:01:07.353Z,1972
2017-04-10T11:02:07.209Z,1972
2017-04-10T11:03:07.080Z,1988
2017-04-10T11:04:07.011Z,1972
2017-04-10T11:05:07.443Z,2076
2017-04-10T11:06:07.466Z,2072
2017-04-10T11:07:07.487Z,2156
2017-04-10T11:08:07.322Z,2200
2017-04-10T11:09:07.010Z,2288
2017-04-10T11:10:07.331Z,2336
2017-04-10T11:11:07.585Z,2388
2017-04-10T11:12:07.612Z,2404
2017-04-10T11:13:07.320Z,2468
2017-04-10T11:14:07.055Z,2448
2017-04-10T11:15:07.685Z,2356
2017-04-10T11:16:07.405Z,2192
2017-04-10T11:17:07.426Z,2216
2017-04-10T11:18:07.447Z,2060
2017-04-10T11:19:07.474Z,2032
2017-04-10T11:20:07.494Z,1972
2017-04-10T11:21:07.835Z,2028
2017-04-10T11:22:07.871Z,2104
2017-04-10T11:23:07.882Z,2156
2017-04-10T11:24:07.918Z,2168
2017-04-10T11:25:07.932Z,2124
2017-04-10T11:26:07.956Z,2076
2017-04-10T11:27:07.989Z,2028
2017-04-10T11:28:08.019Z,2008
2017-04-10T11:29:08.070Z,2044
2017-04-10T11:30:07.438Z,2092
2017-04-10T11:31:08.081Z,2068
2017-04-10T11:32:07.795Z,2088
2017-04-10T11:33:07.191Z,1976
2017-04-10T11:34:07.858Z,1916
2017-04-10T11:35:07.878Z,2024
2017-04-10T11:36:07.905Z,1976
2017-04-10T11:37:07.921Z,1900
2017-04-10T11:38:07.981Z,2012
2017-04-10T11:39:07.974Z,2056
2017-04-10T11:40:08.310Z,2108
2017-04-10T11:41:08.339Z,2124
2017-04-10T11:42:07.444Z,2224
2017-04-10T11:43:08.384Z,2148
2017-04-10T11:44:08.104Z,2208
2017-04-10T11:45:08.126Z,2212
2017-04-10T11:46:08.473Z,2200
2017-04-10T11:47:08.268Z,2164
2017-04-10T11:48:08.418Z,2132
2017-04-10T11:49:08.226Z,1804
2017-04-10T11:50:08.278Z,1748
2017-04-10T11:51:08.608Z,2340
2017-04-10T11:52:08.306Z,2396
2017-04-10T11:53:08.325Z,2360
2017-04-10T11:54:08.680Z,2224
2017-04-10T11:55:08.203Z,1752
2017-04-10T11:56:08.727Z,2028
2017-04-10T11:57:08.437Z,1880
2017-04-10T11:58:08.772Z,1968
2017-04-10T11:59:08.167Z,2056
2017-04-10T12:00:08.815Z,1752
2017-04-10T12:01:08.532Z,1948
2017-04-10T12:02:08.875Z,1348
2017-04-10T12:03:08.896Z,1988
2017-04-10T12:04:08.944Z,1968
2017-04-10T12:05:08.638Z,1932
2017-04-10T12:06:08.349Z,2164
2017-04-10T12:07:08.701Z,2184
2017-04-10T12:08:08.723Z,2244
2017-04-10T12:09:08.742Z,2240
2017-04-10T12:10:08.762Z,2240
2017-04-10T12:11:09.099Z,2340
2017-04-10T12:12:08.191Z,2248
2017-04-10T12:13:09.161Z,2248
2017-04-10T12:14:09.188Z,2492
2017-04-10T12:15:09.209Z,2712
2017-04-10T12:16:09.238Z,2780
2017-04-10T12:17:09.267Z,2996
2017-04-10T12:18:09.287Z,3192
2017-04-10T12:19:08.999Z,3416
2017-04-10T12:20:09.023Z,3376
2017-04-10T12:21:09.363Z,3356
2017-04-10T12:22:09.390Z,3224
2017-04-10T12:23:09.414Z,2732
2017-04-10T12:24:08.820Z,2848
2017-04-10T12:25:09.155Z,2808
2017-04-10T12:26:09.223Z,2708
2017-04-10T12:27:09.524Z,2656
2017-04-10T12:28:09.241Z,2548
2017-04-10T12:29:09.574Z,2460
2017-04-10T12:30:09.284Z,2424
2017-04-10T12:31:09.630Z,2180
2017-04-10T12:32:09.339Z,2324
2017-04-10T12:33:09.671Z,2480
2017-04-10T12:34:09.486Z,2852
2017-04-10T12:35:09.823Z,2908
2017-04-10T12:36:09.986Z,2848
2017-04-10T12:37:09.986Z,2948
2017-04-10T12:38:09.681Z,3192
2017-04-10T12:39:10.001Z,3648
2017-04-10T12:40:10.011Z,3692
2017-04-10T12:41:10.018Z,3704
2017-04-10T12:42:10.028Z,3804
2017-04-10T12:43:10.052Z,3712
2017-04-10T12:44:10.172Z,3668
2017-04-10T12:45:10.085Z,2924
2017-04-10T12:46:10.093Z,2992
2017-04-10T12:47:10.129Z,2692
2017-04-10T12:48:10.165Z,2704
2017-04-10T12:49:10.172Z,3280
2017-04-10T12:50:10.179Z,2840
2017-04-10T12:51:10.193Z,2752
2017-04-10T12:52:10.188Z,2856
2017-04-10T12:53:10.348Z,2684
2017-04-10T12:54:10.005Z,2844
2017-04-10T12:55:10.086Z,2756
2017-04-10T12:56:10.281Z,2832
2017-04-10T12:57:10.310Z,2772
2017-04-10T12:58:10.336Z,2868
2017-04-10T12:59:10.379Z,2972
2017-04-10T13:00:10.395Z,3312
2017-04-10T13:01:10.417Z,3808
2017-04-10T13:02:10.450Z,3436
2017-04-10T13:03:10.479Z,3796
2017-04-10T13:04:10.496Z,3436
2017-04-10T13:05:10.532Z,3636
2017-04-10T13:06:10.241Z,3688
2017-04-10T13:07:10.582Z,3452
2017-04-10T13:08:10.297Z,3068
2017-04-10T13:09:10.630Z,2920
2017-04-10T13:10:10.663Z,2772
2017-04-10T13:11:10.688Z,3092
2017-04-10T13:12:10.712Z,2956
2017-04-10T13:13:10.744Z,3648
2017-04-10T13:14:10.449Z,3264
2017-04-10T13:15:10.795Z,3204
2017-04-10T13:16:10.822Z,3404
2017-04-10T13:17:10.857Z,3356
2017-04-10T13:18:10.873Z,3032
2017-04-10T13:19:10.909Z,3492
2017-04-10T13:20:10.945Z,3792
2017-04-10T13:21:10.637Z,3668
2017-04-10T13:22:10.676Z,3900
2017-04-10T13:23:10.701Z,3832
2017-04-10T13:24:11.043Z,3528
2017-04-10T13:25:10.751Z,3328
2017-04-10T13:26:10.780Z,3296
2017-04-10T13:27:10.799Z,3200
2017-04-10T13:28:11.209Z,3104
2017-04-10T13:29:11.168Z,3060
2017-04-10T13:30:11.206Z,3076
2017-04-10T13:31:10.978Z,2944
2017-04-10T13:32:11.257Z,2792
2017-04-10T13:33:10.647Z,2708
2017-04-10T13:34:10.994Z,2740
2017-04-10T13:35:10.702Z,2672
2017-04-10T13:36:11.041Z,2628
2017-04-10T13:37:11.068Z,2600
2017-04-10T13:38:11.092Z,2544
2017-04-10T13:39:11.430Z,2672
2017-04-10T13:40:11.154Z,3036
2017-04-10T13:41:10.863Z,3024
2017-04-10T13:42:10.886Z,2992
2017-04-10T13:43:11.540Z,2896
2017-04-10T13:44:11.570Z,2884
2017-04-10T13:45:11.601Z,2848
2017-04-10T13:46:11.312Z,2792
2017-04-10T13:47:11.338Z,2704
2017-04-10T13:48:11.680Z,2552
2017-04-10T13:49:11.388Z,2288
2017-04-10T13:50:11.747Z,2148
2017-04-10T13:51:11.755Z,1896
2017-04-10T13:52:11.585Z,1840
2017-04-10T13:53:11.597Z,2280
2017-04-10T13:54:11.939Z,2516
2017-04-10T13:55:11.634Z,2536
2017-04-10T13:56:11.967Z,2676
2017-04-10T13:57:12.004Z,2700